createdAt,value
2022-10-17T00:02:45.677Z,30.67
2022-10-17T00:05:38.362Z,30.74
2022-10-17T00:08:27.616Z,30.85
2022-10-17T00:11:26.291Z,30.96
2022-10-17T00:14:18.027Z,31.06
2022-10-17T00:17:08.042Z,31.16
2022-10-17T00:19:57.909Z,31.22
2022-10-17T00:22:47.627Z,31.28
2022-10-17T00:25:37.394Z,31.34
2022-10-17T00:28:26.544Z,31.41
2022-10-17T00:31:19.542Z,31.47
2022-10-17T00:34:09.174Z,31.50
2022-10-17T00:36:58.781Z,31.46
2022-10-17T00:39:48.223Z,31.43
2022-10-17T00:42:37.823Z,31.55
2022-10-17T00:45:30.755Z,31.60
2022-10-17T00:48:22.649Z,31.65
2022-10-17T00:51:13.295Z,31.71
2022-10-17T00:54:02.995Z,31.79
2022-10-17T00:56:53.207Z,31.86
2022-10-17T00:59:44.765Z,31.78
2022-10-17T01:02:36.547Z,31.78
2022-10-17T01:05:26.152Z,31.72
2022-10-17T01:08:15.935Z,31.65
2022-10-17T01:11:34.992Z,31.71
2022-10-17T01:14:34.945Z,31.70
2022-10-17T01:17:37.536Z,31.65
2022-10-17T01:20:40.228Z,31.74
2022-10-17T01:24:11.850Z,31.86
2022-10-17T01:27:25.571Z,31.87
2022-10-17T01:30:47.589Z,32.01
2022-10-17T01:34:03.137Z,32.15
2022-10-17T01:37:31.185Z,32.16
2022-10-17T01:40:49.506Z,32.23
2022-10-17T01:44:02.002Z,32.23
2022-10-17T01:49:53.445Z,32.30
2022-10-17T01:53:28.729Z,32.39
2022-10-17T01:56:18.895Z,32.44
2022-10-17T01:59:21.952Z,32.49
2022-10-17T02:02:13.780Z,32.59
2022-10-17T02:05:05.360Z,32.64
2022-10-17T02:07:55.420Z,32.68
2022-10-17T02:11:07.635Z,32.68
2022-10-17T02:14:32.586Z,32.71
2022-10-17T02:17:32.586Z,32.59
2022-10-17T02:20:47.761Z,32.58
2022-10-17T02:23:56.443Z,32.63
2022-10-17T02:27:03.398Z,32.61
2022-10-17T02:30:02.859Z,32.62
2022-10-17T02:33:02.026Z,32.62
2022-10-17T02:35:55.185Z,32.75
2022-10-17T02:38:45.427Z,32.78
2022-10-17T02:41:35.785Z,32.82
2022-10-17T02:44:25.892Z,32.75
2022-10-17T02:47:28.989Z,32.82
2022-10-17T02:50:18.843Z,32.77
2022-10-17T02:53:14.096Z,32.75
2022-10-17T02:56:16.633Z,32.80
2022-10-17T02:59:08.922Z,32.84
2022-10-17T03:01:58.376Z,32.79
2022-10-17T03:04:48.876Z,32.77
2022-10-17T03:07:38.787Z,32.73
2022-10-17T03:10:28.833Z,32.79
2022-10-17T03:13:19.605Z,32.74
2022-10-17T03:16:11.428Z,32.78
2022-10-17T03:19:01.672Z,32.77
2022-10-17T03:21:51.453Z,32.84
2022-10-17T03:24:41.623Z,32.95
2022-10-17T03:27:31.361Z,32.95
2022-10-17T03:30:22.058Z,33.09
2022-10-17T03:33:13.047Z,33.20
2022-10-17T03:36:08.460Z,33.12
2022-10-17T03:38:58.244Z,33.26
2022-10-17T03:41:47.642Z,33.30
2022-10-17T03:44:36.820Z,33.32
2022-10-17T03:47:29.098Z,33.31
2022-10-17T03:50:18.837Z,33.44
2022-10-17T03:53:09.839Z,33.54
2022-10-17T03:56:10.280Z,33.62
2022-10-17T03:59:00.928Z,33.70
2022-10-17T04:01:52.400Z,33.60
2022-10-17T04:04:43.378Z,33.63
2022-10-17T04:07:33.502Z,33.63
2022-10-17T04:10:25.643Z,33.60
2022-10-17T04:13:16.358Z,33.71
2022-10-17T04:16:09.150Z,33.84
2022-10-17T04:19:03.850Z,33.97
2022-10-17T04:21:58.806Z,34.01
2022-10-17T04:24:51.011Z,34.09
2022-10-17T04:28:00.823Z,34.08
2022-10-17T04:31:04.438Z,33.82
2022-10-17T04:34:02.316Z,33.74
2022-10-17T04:36:53.291Z,33.71
2022-10-17T04:39:43.844Z,33.86
2022-10-17T04:42:33.436Z,33.84
2022-10-17T04:45:23.878Z,33.92
2022-10-17T04:48:19.358Z,33.93
2022-10-17T04:51:14.426Z,33.92
2022-10-17T04:54:22.208Z,33.86
2022-10-17T04:57:17.851Z,33.84
2022-10-17T05:00:16.884Z,33.75
2022-10-17T05:03:21.949Z,33.52
2022-10-17T05:06:16.370Z,33.33
2022-10-17T05:09:11.790Z,33.14
2022-10-17T05:12:02.635Z,32.92
2022-10-17T05:14:55.000Z,32.87
2022-10-17T05:17:47.905Z,32.85
2022-10-17T05:20:40.848Z,32.75
2022-10-17T05:23:31.856Z,32.65
2022-10-17T05:26:22.739Z,32.60
2022-10-17T05:29:12.250Z,32.59
2022-10-17T05:32:07.267Z,32.55
2022-10-17T05:34:58.014Z,32.48
2022-10-17T05:37:47.700Z,32.49
2022-10-17T05:40:40.333Z,32.41
2022-10-17T05:43:36.556Z,32.37
2022-10-17T05:46:27.370Z,32.36
2022-10-17T05:49:32.165Z,32.33
2022-10-17T05:52:22.967Z,32.47
2022-10-17T05:55:41.720Z,32.45
2022-10-17T05:59:00.907Z,32.49
2022-10-17T06:02:02.656Z,32.55
2022-10-17T06:04:52.777Z,32.58
2022-10-17T06:07:44.643Z,32.61
2022-10-17T06:10:35.827Z,32.60
2022-10-17T06:13:26.432Z,32.61
2022-10-17T06:16:17.475Z,32.59
2022-10-17T06:19:07.843Z,32.53
2022-10-17T06:21:59.062Z,32.46
2022-10-17T06:24:50.027Z,32.46
2022-10-17T06:27:39.807Z,32.49
2022-10-17T06:30:29.481Z,32.52
2022-10-17T06:33:19.249Z,32.54
2022-10-17T06:36:10.207Z,32.52
2022-10-17T06:39:00.117Z,32.50
2022-10-17T06:41:55.761Z,32.50
2022-10-17T06:44:59.293Z,32.51
2022-10-17T06:48:03.150Z,32.50
2022-10-17T06:51:10.734Z,32.42
2022-10-17T06:54:09.665Z,32.43
2022-10-17T06:57:17.183Z,32.39
2022-10-17T07:00:21.718Z,32.30
2022-10-17T07:03:14.828Z,32.31
2022-10-17T07:06:05.011Z,32.32
2022-10-17T07:08:57.417Z,32.32
2022-10-17T07:11:47.397Z,32.30
2022-10-17T07:14:40.500Z,32.30
2022-10-17T07:17:31.319Z,32.23
2022-10-17T07:20:20.894Z,32.06
2022-10-17T07:23:11.156Z,32.12
2022-10-17T07:26:08.310Z,32.16
2022-10-17T07:29:03.337Z,32.16
2022-10-17T07:31:57.634Z,32.28
2022-10-17T07:34:47.515Z,32.30
2022-10-17T07:37:38.085Z,32.27
2022-10-17T07:40:27.886Z,32.23
2022-10-17T07:43:18.114Z,32.19
2022-10-17T07:46:07.875Z,32.19
2022-10-17T07:48:57.960Z,32.17
2022-10-17T07:51:49.591Z,32.11
2022-10-17T07:54:39.644Z,32.09
2022-10-17T07:57:29.708Z,32.06
2022-10-17T08:00:19.639Z,32.06
2022-10-17T08:03:11.741Z,31.96
2022-10-17T08:06:02.467Z,31.93
2022-10-17T08:08:52.241Z,31.92
2022-10-17T08:11:41.989Z,31.86
2022-10-17T08:14:31.724Z,31.86
2022-10-17T08:17:21.267Z,31.82
2022-10-17T08:20:11.363Z,31.80
2022-10-17T08:23:00.792Z,31.77
2022-10-17T08:25:50.432Z,31.72
2022-10-17T08:28:42.957Z,31.79
2022-10-17T08:31:33.661Z,31.76
2022-10-17T08:34:29.771Z,31.72
2022-10-17T08:37:22.057Z,31.71
2022-10-17T08:40:21.131Z,31.63
2022-10-17T08:43:21.683Z,31.56
2022-10-17T08:46:16.939Z,31.47
2022-10-17T08:49:14.766Z,31.41
2022-10-17T08:52:31.049Z,31.33
2022-10-17T08:55:44.613Z,31.19
2022-10-17T08:58:39.516Z,31.10
2022-10-17T09:01:43.467Z,31.03
2022-10-17T09:04:54.123Z,30.89
2022-10-17T09:08:10.332Z,30.79
2022-10-17T09:11:16.656Z,30.78
2022-10-17T09:14:27.340Z,30.73
2022-10-17T09:17:36.903Z,30.64
2022-10-17T09:20:47.032Z,30.54
2022-10-17T09:23:47.859Z,30.54
2022-10-17T09:26:41.452Z,30.50
2022-10-17T09:29:36.906Z,30.43
2022-10-17T09:32:29.423Z,30.43
2022-10-17T09:35:24.636Z,30.38
2022-10-17T09:38:21.879Z,30.38
2022-10-17T09:41:44.425Z,30.31
2022-10-17T09:44:37.166Z,30.34
2022-10-17T09:47:33.619Z,30.33
2022-10-17T09:50:35.147Z,30.29
2022-10-17T09:53:47.187Z,30.32
2022-10-17T09:57:00.677Z,30.30
2022-10-17T10:00:05.755Z,30.31
2022-10-17T10:03:14.680Z,30.41
2022-10-17T10:06:19.191Z,30.40
2022-10-17T10:09:22.440Z,30.34
2022-10-17T10:12:21.554Z,30.40
2022-10-17T10:15:41.968Z,30.42
2022-10-17T10:18:37.139Z,30.42
2022-10-17T10:21:29.460Z,30.41
2022-10-17T10:24:21.240Z,30.43
2022-10-17T10:27:19.077Z,30.42
2022-10-17T10:30:09.192Z,30.41
2022-10-17T10:33:00.016Z,30.43
2022-10-17T10:36:04.880Z,30.43
2022-10-17T10:39:03.834Z,30.42
2022-10-17T10:41:55.402Z,30.49
2022-10-17T10:44:45.156Z,30.44
2022-10-17T10:47:34.904Z,30.45
2022-10-17T10:50:45.064Z,30.50
2022-10-17T10:53:50.779Z,30.48
2022-10-17T10:56:48.784Z,30.48
2022-10-17T11:00:01.779Z,30.53
2022-10-17T11:03:11.825Z,30.46
2022-10-17T11:06:15.004Z,30.44
2022-10-17T11:09:31.409Z,30.43
2022-10-17T11:12:31.471Z,30.39
2022-10-17T11:15:33.388Z,30.38
2022-10-17T11:18:32.346Z,30.36
2022-10-17T11:21:45.937Z,30.31
2022-10-17T11:24:42.376Z,30.25
2022-10-17T11:27:32.923Z,30.25
2022-10-17T11:30:23.800Z,30.23
2022-10-17T11:33:35.902Z,30.25
2022-10-17T11:36:39.660Z,30.29
2022-10-17T11:39:56.978Z,30.29
2022-10-17T11:43:29.136Z,30.18
2022-10-17T11:46:27.708Z,30.10
2022-10-17T11:49:20.944Z,30.03
2022-10-17T11:52:55.509Z,30.14
2022-10-17T11:55:47.615Z,30.13
2022-10-17T11:58:43.427Z,30.07
2022-10-17T12:01:41.282Z,30.09
2022-10-17T12:05:03.210Z,30.03
2022-10-17T12:07:56.706Z,30.03
2022-10-17T12:10:47.732Z,30.01
2022-10-17T12:13:37.099Z,30.03
2022-10-17T12:16:26.873Z,29.96
2022-10-17T12:19:23.372Z,29.98
2022-10-17T12:22:21.369Z,29.98
2022-10-17T12:25:32.911Z,29.99
2022-10-17T12:28:34.870Z,30.04
2022-10-17T12:31:33.863Z,30.00
2022-10-17T12:34:25.928Z,29.95
2022-10-17T12:37:16.390Z,30.00
2022-10-17T12:40:39.376Z,29.96
2022-10-17T12:43:32.007Z,29.94
2022-10-17T12:47:01.613Z,29.90
2022-10-17T12:49:55.805Z,29.92
2022-10-17T12:53:01.654Z,29.97
2022-10-17T12:55:52.851Z,29.92
2022-10-17T12:58:50.320Z,29.90
2022-10-17T13:01:41.159Z,29.98
2022-10-17T13:04:32.617Z,29.92
2022-10-17T13:07:25.453Z,29.95
2022-10-17T13:13:41.294Z,29.99
2022-10-17T13:16:34.352Z,29.97
2022-10-17T13:19:32.095Z,30.01
2022-10-17T13:22:33.581Z,30.04
2022-10-17T13:25:28.219Z,29.98
2022-10-17T13:28:18.651Z,29.92
2022-10-17T13:31:08.960Z,29.99
2022-10-17T13:34:00.919Z,29.94
2022-10-17T13:36:57.982Z,29.97
2022-10-17T13:39:55.548Z,29.94
2022-10-17T13:42:45.151Z,29.91
2022-10-17T13:45:39.364Z,29.95
2022-10-17T13:48:30.346Z,29.95
2022-10-17T13:51:20.179Z,29.92
2022-10-17T13:54:38.721Z,29.99
2022-10-17T13:57:31.412Z,29.95
2022-10-17T14:00:23.972Z,29.90
2022-10-17T14:03:14.561Z,29.94
2022-10-17T14:06:10.641Z,29.93
2022-10-17T14:09:02.407Z,29.88
2022-10-17T14:12:20.494Z,29.89
2022-10-17T14:15:14.522Z,29.95
2022-10-17T14:18:09.932Z,29.96
2022-10-17T14:24:25.834Z,30.00
2022-10-17T14:27:39.547Z,29.98
2022-10-17T14:33:42.545Z,30.05
2022-10-17T14:36:36.657Z,30.14
2022-10-17T14:39:27.806Z,30.16
2022-10-17T14:42:24.100Z,30.19
2022-10-17T14:45:21.354Z,30.16
2022-10-17T14:48:20.119Z,30.19
2022-10-17T14:51:16.931Z,30.22
2022-10-17T14:54:15.575Z,30.23
2022-10-17T14:57:18.719Z,30.23
2022-10-17T15:00:11.623Z,30.24
2022-10-17T15:03:04.662Z,30.25
2022-10-17T15:05:56.837Z,30.20
2022-10-17T15:08:46.079Z,30.25
2022-10-17T15:11:38.721Z,30.26
2022-10-17T15:14:28.961Z,30.27
2022-10-17T15:17:30.397Z,30.24
2022-10-17T15:20:21.352Z,30.26
2022-10-17T15:23:10.741Z,30.25
2022-10-17T15:26:01.157Z,30.29
2022-10-17T15:28:55.189Z,30.24
2022-10-17T15:31:45.127Z,30.25
2022-10-17T15:34:35.237Z,30.22
2022-10-17T15:37:26.391Z,30.26
2022-10-17T15:40:25.248Z,30.22
2022-10-17T15:43:18.755Z,30.25
2022-10-17T15:46:22.221Z,30.22
2022-10-17T15:49:16.680Z,30.23
2022-10-17T15:52:06.758Z,30.24
2022-10-17T15:54:59.491Z,30.22
2022-10-17T15:57:52.047Z,30.23
2022-10-17T16:00:43.717Z,30.23
2022-10-17T16:03:34.659Z,30.25
2022-10-17T16:06:25.860Z,30.25
2022-10-17T16:09:15.730Z,30.23
2022-10-17T16:12:07.790Z,30.24
2022-10-17T16:14:58.275Z,30.25
2022-10-17T16:17:47.699Z,30.24
2022-10-17T16:20:37.518Z,30.24
2022-10-17T16:23:27.996Z,30.24
2022-10-17T16:26:17.884Z,30.23
2022-10-17T16:29:08.175Z,30.18
2022-10-17T16:31:58.180Z,30.19
2022-10-17T16:34:47.896Z,30.18
2022-10-17T16:37:37.209Z,30.15
2022-10-17T16:40:27.244Z,30.15
2022-10-17T16:43:16.813Z,30.14
2022-10-17T16:46:10.036Z,30.13
2022-10-17T16:49:00.808Z,30.13
2022-10-17T16:51:50.035Z,30.12
2022-10-17T16:54:40.082Z,30.12
2022-10-17T16:57:30.178Z,30.09
2022-10-17T17:00:22.826Z,30.06
2022-10-17T17:03:12.940Z,30.08
2022-10-17T17:06:02.856Z,30.03
2022-10-17T17:08:53.236Z,29.98
2022-10-17T17:11:48.039Z,29.97
2022-10-17T17:14:37.323Z,29.97
2022-10-17T17:17:36.825Z,29.94
2022-10-17T17:20:38.340Z,29.88
2022-10-17T17:23:28.646Z,29.84
2022-10-17T17:26:20.355Z,29.83
2022-10-17T17:29:09.955Z,29.79
2022-10-17T17:31:59.996Z,29.77
2022-10-17T17:34:49.816Z,29.76
2022-10-17T17:37:39.208Z,29.72
2022-10-17T17:40:28.227Z,29.72
2022-10-17T17:43:17.444Z,29.70
2022-10-17T17:46:06.732Z,29.69
2022-10-17T17:48:58.215Z,29.67
2022-10-17T17:51:47.826Z,29.67
2022-10-17T17:54:40.742Z,29.62
2022-10-17T17:57:31.386Z,29.60
2022-10-17T18:00:21.228Z,29.61
2022-10-17T18:03:10.902Z,29.61
2022-10-17T18:06:00.719Z,29.63
2022-10-17T18:08:53.475Z,29.62
2022-10-17T18:11:43.047Z,29.61
2022-10-17T18:14:32.758Z,29.59
2022-10-17T18:17:23.007Z,29.59
2022-10-17T18:20:14.486Z,29.58
2022-10-17T18:23:04.324Z,29.55
2022-10-17T18:26:02.298Z,29.57
2022-10-17T18:28:52.128Z,29.55
2022-10-17T18:31:41.460Z,29.53
2022-10-17T18:34:31.209Z,29.52
2022-10-17T18:37:20.626Z,29.52
2022-10-17T18:40:10.452Z,29.51
2022-10-17T18:43:00.037Z,29.49
2022-10-17T18:45:51.174Z,29.46
2022-10-17T18:48:42.403Z,29.46
2022-10-17T18:51:31.881Z,29.47
2022-10-17T18:54:23.095Z,29.47
2022-10-17T18:57:12.714Z,29.45
2022-10-17T19:00:01.850Z,29.44
2022-10-17T19:02:51.268Z,29.43
2022-10-17T19:05:41.518Z,29.43
2022-10-17T19:08:33.296Z,29.42
2022-10-17T19:11:25.395Z,29.40
2022-10-17T19:14:15.009Z,29.40
2022-10-17T19:17:04.958Z,29.37
2022-10-17T19:19:55.905Z,29.35
2022-10-17T19:22:45.959Z,29.39
2022-10-17T19:25:35.933Z,29.35
2022-10-17T19:28:25.473Z,29.37
2022-10-17T19:31:16.993Z,29.36
2022-10-17T19:34:07.613Z,29.37
2022-10-17T19:36:58.389Z,29.39
2022-10-17T19:39:49.434Z,29.33
2022-10-17T19:42:38.631Z,29.33
2022-10-17T19:45:27.895Z,29.32
2022-10-17T19:48:18.416Z,29.31
2022-10-17T19:51:09.102Z,29.32
2022-10-17T19:54:01.279Z,29.27
2022-10-17T19:56:50.837Z,29.29
2022-10-17T19:59:39.660Z,29.30
2022-10-17T20:02:29.591Z,29.30
2022-10-17T20:05:20.209Z,29.28
2022-10-17T20:08:10.613Z,29.27
2022-10-17T20:11:08.080Z,29.26
2022-10-17T20:13:58.271Z,29.24
2022-10-17T20:16:53.307Z,29.24
2022-10-17T20:19:45.381Z,29.23
2022-10-17T20:22:35.727Z,29.22
2022-10-17T20:25:26.404Z,29.21
2022-10-17T20:28:17.097Z,29.22
2022-10-17T20:31:08.523Z,29.22
2022-10-17T20:34:01.459Z,29.21
2022-10-17T20:36:53.230Z,29.22
2022-10-17T20:39:44.351Z,29.21
2022-10-17T20:42:36.149Z,29.21
2022-10-17T20:45:37.591Z,29.20
2022-10-17T20:48:35.386Z,29.20
2022-10-17T20:51:24.242Z,29.21
2022-10-17T20:54:13.800Z,29.20
2022-10-17T20:57:04.908Z,29.17
2022-10-17T20:59:54.120Z,29.22
2022-10-17T21:02:43.157Z,29.20
2022-10-17T21:05:33.767Z,29.17
2022-10-17T21:08:23.217Z,29.16
2022-10-17T21:11:18.660Z,29.16
2022-10-17T21:14:09.147Z,29.16
2022-10-17T21:17:03.870Z,29.13
2022-10-17T21:19:56.701Z,29.13
2022-10-17T21:22:45.735Z,29.11
2022-10-17T21:25:35.283Z,29.12
2022-10-17T21:28:25.863Z,29.12
2022-10-17T21:31:16.971Z,29.11
2022-10-17T21:34:11.281Z,29.10
2022-10-17T21:37:01.343Z,29.09
2022-10-17T21:39:50.910Z,29.08
2022-10-17T21:42:40.004Z,29.09
2022-10-17T21:45:29.686Z,29.07
2022-10-17T21:48:18.741Z,29.04
2022-10-17T21:51:10.840Z,29.07
2022-10-17T21:54:05.673Z,29.08
2022-10-17T21:56:55.982Z,29.08
2022-10-17T21:59:45.846Z,29.06
2022-10-17T22:02:34.899Z,29.05
2022-10-17T22:05:26.185Z,29.01
2022-10-17T22:08:16.773Z,29.05
2022-10-17T22:11:15.169Z,29.05
2022-10-17T22:14:07.818Z,29.05
2022-10-17T22:16:58.164Z,29.02
2022-10-17T22:19:49.492Z,28.98
2022-10-17T22:22:39.590Z,29.02
2022-10-17T22:25:29.088Z,29.02
2022-10-17T22:28:18.439Z,28.99
2022-10-17T22:31:08.835Z,28.97
2022-10-17T22:33:59.957Z,28.98
2022-10-17T22:36:50.724Z,28.93
2022-10-17T22:39:41.189Z,28.99
2022-10-17T22:42:32.366Z,29.00
2022-10-17T22:45:21.808Z,28.98
2022-10-17T22:48:11.561Z,28.98
2022-10-17T22:51:02.016Z,28.99
2022-10-17T22:53:51.779Z,28.97
2022-10-17T22:56:41.185Z,29.02
2022-10-17T22:59:29.978Z,29.00
2022-10-17T23:02:19.788Z,28.99
2022-10-17T23:05:10.552Z,29.03
2022-10-17T23:08:00.197Z,29.11
2022-10-17T23:10:50.093Z,29.14
2022-10-17T23:13:41.734Z,29.15
2022-10-17T23:16:31.282Z,29.11
2022-10-17T23:19:20.699Z,29.15
2022-10-17T23:22:10.261Z,29.14
2022-10-17T23:24:59.923Z,29.18
2022-10-17T23:27:50.255Z,29.22
2022-10-17T23:30:40.582Z,29.22
2022-10-17T23:33:30.023Z,29.23
2022-10-17T23:36:25.336Z,29.23
2022-10-17T23:39:14.959Z,29.30
2022-10-17T23:42:03.967Z,29.28
2022-10-17T23:44:53.083Z,29.30
2022-10-17T23:47:42.477Z,29.33
2022-10-17T23:50:32.799Z,29.37
2022-10-17T23:53:22.095Z,29.37
2022-10-17T23:56:12.527Z,29.37
2022-10-17T23:59:02.015Z,29.44
